createdAt,value
2024-02-07T00:01:38.066Z,5.78
2024-02-07T00:04:05.878Z,4.50
2024-02-07T00:06:33.985Z,6.00
2024-02-07T00:09:01.911Z,2.13
2024-02-07T00:11:29.350Z,1.67
2024-02-07T00:13:56.875Z,4.60
2024-02-07T00:16:24.545Z,2.13
2024-02-07T00:18:52.046Z,4.07
2024-02-07T00:21:19.594Z,2.80
2024-02-07T00:23:47.260Z,3.80
2024-02-07T00:26:14.723Z,5.83
2024-02-07T00:28:42.258Z,3.05
2024-02-07T00:31:09.936Z,4.07
2024-02-07T00:33:37.404Z,3.43
2024-02-07T00:36:05.260Z,3.17
2024-02-07T00:38:32.696Z,3.38
2024-02-07T00:41:00.324Z,3.97
2024-02-07T00:43:27.847Z,4.40
2024-02-07T00:45:56.110Z,3.72
2024-02-07T00:48:23.652Z,4.95
2024-02-07T00:50:51.082Z,4.68
2024-02-07T00:53:18.514Z,2.70
2024-02-07T00:55:46.548Z,5.10
2024-02-07T00:58:14.246Z,2.10
2024-02-07T01:00:41.889Z,2.08
2024-02-07T01:03:09.403Z,2.20
2024-02-07T01:05:36.872Z,3.78
2024-02-07T01:08:05.042Z,4.80
2024-02-07T01:10:32.742Z,5.03
2024-02-07T01:13:00.235Z,4.97
2024-02-07T01:15:27.728Z,5.80
2024-02-07T01:17:55.676Z,6.25
2024-02-07T01:20:23.409Z,2.63
2024-02-07T01:22:50.963Z,2.83
2024-02-07T01:25:19.918Z,2.55
2024-02-07T01:27:47.474Z,3.30
2024-02-07T01:30:17.878Z,4.70
2024-02-07T01:32:45.454Z,2.70
2024-02-07T01:35:13.129Z,2.08
2024-02-07T01:37:41.272Z,4.68
2024-02-07T01:40:18.861Z,2.03
2024-02-07T01:42:46.379Z,4.97
2024-02-07T01:45:24.682Z,2.63
2024-02-07T01:47:53.358Z,6.57
2024-02-07T01:50:22.682Z,3.55
2024-02-07T01:52:51.233Z,2.95
2024-02-07T01:57:46.786Z,3.03
2024-02-07T02:00:14.512Z,1.97
2024-02-07T02:02:42.837Z,3.33
2024-02-07T02:05:10.339Z,2.17
2024-02-07T02:07:37.802Z,3.70
2024-02-07T02:10:05.570Z,3.78
2024-02-07T02:12:32.995Z,4.53
2024-02-07T02:15:00.442Z,2.65
2024-02-07T02:17:27.990Z,4.03
2024-02-07T02:19:55.467Z,2.53
2024-02-07T02:22:47.373Z,4.20
2024-02-07T02:25:48.229Z,3.55
2024-02-07T02:28:34.704Z,4.13
2024-02-07T02:31:03.717Z,3.42
2024-02-07T02:33:32.426Z,2.70
2024-02-07T02:36:01.523Z,2.53
2024-02-07T02:38:29.192Z,4.93
2024-02-07T02:40:56.664Z,3.40
2024-02-07T02:43:24.415Z,3.53
2024-02-07T02:45:53.082Z,3.08
2024-02-07T02:48:20.797Z,2.63
2024-02-07T02:50:49.814Z,3.88
2024-02-07T02:53:17.610Z,2.72
2024-02-07T02:55:45.429Z,2.70
2024-02-07T02:58:19.430Z,3.83
2024-02-07T03:00:53.220Z,3.22
2024-02-07T03:03:20.745Z,2.90
2024-02-07T03:05:58.694Z,1.77
2024-02-07T03:08:56.440Z,3.50
2024-02-07T03:11:24.798Z,2.50
2024-02-07T03:16:20.450Z,2.35
2024-02-07T03:18:48.018Z,5.20
2024-02-07T03:21:15.756Z,3.63
2024-02-07T03:23:43.823Z,4.23
2024-02-07T03:26:12.251Z,4.00
2024-02-07T03:28:39.738Z,3.40
2024-02-07T03:31:09.972Z,2.97
2024-02-07T03:33:38.062Z,3.78
2024-02-07T03:36:07.698Z,4.57
2024-02-07T03:38:35.126Z,3.05
2024-02-07T03:41:02.755Z,3.65
2024-02-07T03:43:30.279Z,3.63
2024-02-07T03:45:58.471Z,3.63
2024-02-07T03:48:26.970Z,3.72
2024-02-07T03:50:54.690Z,2.65
2024-02-07T03:53:22.382Z,3.20
2024-02-07T03:55:50.329Z,3.50
2024-02-07T03:58:20.861Z,1.90
2024-02-07T04:00:48.652Z,3.70
2024-02-07T04:03:17.033Z,3.63
2024-02-07T04:05:44.828Z,3.08
2024-02-07T04:08:13.426Z,4.07
2024-02-07T04:10:44.367Z,2.10
2024-02-07T04:13:12.228Z,3.20
2024-02-07T04:15:58.296Z,2.40
2024-02-07T04:18:44.304Z,3.55
2024-02-07T04:21:30.275Z,2.10
2024-02-07T04:24:16.432Z,3.65
2024-02-07T04:27:02.575Z,2.22
2024-02-07T04:29:48.835Z,5.82
2024-02-07T04:32:35.080Z,1.90
2024-02-07T04:35:21.046Z,4.88
2024-02-07T04:38:07.423Z,2.33
2024-02-07T04:40:53.624Z,2.75
2024-02-07T04:43:40.045Z,2.20
2024-02-07T04:46:26.281Z,2.72
2024-02-07T04:49:12.437Z,1.83
2024-02-07T04:51:58.756Z,3.75
2024-02-07T04:54:45.129Z,3.45
2024-02-07T04:57:31.614Z,2.53
2024-02-07T05:00:17.977Z,2.42
2024-02-07T05:03:04.364Z,1.85
2024-02-07T05:05:50.800Z,2.15
2024-02-07T05:08:37.162Z,3.50
2024-02-07T05:11:23.451Z,2.03
2024-02-07T05:14:09.494Z,3.70
2024-02-07T05:16:36.978Z,4.20
2024-02-07T05:19:04.602Z,2.00
2024-02-07T05:21:32.156Z,3.83
2024-02-07T05:23:59.602Z,0.80
2024-02-07T05:26:27.045Z,2.42
2024-02-07T05:28:54.719Z,2.43
2024-02-07T05:31:22.230Z,1.83
2024-02-07T05:33:50.026Z,1.42
2024-02-07T05:36:17.494Z,2.85
2024-02-07T05:38:45.009Z,2.92
2024-02-07T05:41:12.485Z,3.33
2024-02-07T05:43:39.864Z,2.63
2024-02-07T05:46:07.409Z,4.10
2024-02-07T05:48:34.991Z,2.78
2024-02-07T05:51:02.402Z,3.47
2024-02-07T05:53:29.839Z,2.95
2024-02-07T05:55:57.432Z,3.40
2024-02-07T05:58:36.904Z,2.92
2024-02-07T06:01:04.460Z,2.50
2024-02-07T06:03:31.971Z,1.40
2024-02-07T06:05:59.653Z,4.70
2024-02-07T06:08:27.237Z,3.23
2024-02-07T06:10:56.314Z,3.00
2024-02-07T06:13:23.876Z,3.45
2024-02-07T06:15:51.500Z,2.78
2024-02-07T06:18:19.003Z,4.53
2024-02-07T06:20:46.711Z,3.57
2024-02-07T06:23:14.489Z,1.17
2024-02-07T06:25:42.311Z,3.03
2024-02-07T06:28:09.940Z,1.35
2024-02-07T06:30:37.359Z,2.40
2024-02-07T06:33:05.246Z,2.55
2024-02-07T06:35:32.741Z,3.70
2024-02-07T06:38:00.244Z,3.38
2024-02-07T06:40:29.753Z,3.58
2024-02-07T06:42:57.532Z,4.15
2024-02-07T06:45:25.031Z,3.13
2024-02-07T06:47:52.535Z,3.85
2024-02-07T06:50:23.322Z,1.98
2024-02-07T06:52:50.996Z,2.10
2024-02-07T06:55:20.689Z,2.42
2024-02-07T06:57:48.780Z,3.33
2024-02-07T07:00:16.858Z,2.27
2024-02-07T07:02:44.797Z,2.90
2024-02-07T07:05:12.272Z,2.75
2024-02-07T07:07:39.766Z,3.15
2024-02-07T07:10:07.518Z,3.38
2024-02-07T07:12:34.889Z,2.80
2024-02-07T07:15:05.046Z,3.80
2024-02-07T07:17:34.376Z,3.50
2024-02-07T07:20:01.932Z,2.15
2024-02-07T07:22:29.505Z,3.33
2024-02-07T07:24:56.987Z,4.07
2024-02-07T07:27:24.454Z,2.53
2024-02-07T07:29:52.619Z,2.15
2024-02-07T07:32:20.080Z,2.90
2024-02-07T07:34:47.596Z,5.47
2024-02-07T07:37:15.218Z,6.15
2024-02-07T07:39:45.752Z,4.93
2024-02-07T07:42:13.291Z,5.03
2024-02-07T07:44:42.121Z,5.68
2024-02-07T07:47:09.904Z,8.50
2024-02-07T07:49:37.458Z,6.90
2024-02-07T07:52:05.224Z,5.33
2024-02-07T07:54:32.706Z,6.03
2024-02-07T07:57:01.209Z,4.97
2024-02-07T08:02:02.978Z,3.38
2024-02-07T08:04:30.819Z,4.75
2024-02-07T08:06:58.435Z,2.95
2024-02-07T08:09:27.843Z,3.63
2024-02-07T08:11:55.321Z,3.88
2024-02-07T08:14:22.735Z,5.22
2024-02-07T08:16:50.864Z,3.75
2024-02-07T08:19:18.455Z,6.13
2024-02-07T08:21:46.153Z,4.40
2024-02-07T08:24:13.511Z,2.90
2024-02-07T08:26:40.921Z,3.42
2024-02-07T08:29:08.362Z,2.25
2024-02-07T08:31:35.845Z,2.47
2024-02-07T08:34:03.510Z,3.95
2024-02-07T08:36:31.140Z,4.87
2024-02-07T08:38:58.536Z,3.80
2024-02-07T08:41:26.966Z,2.58
2024-02-07T08:43:54.760Z,2.05
2024-02-07T08:46:22.525Z,2.55
2024-02-07T08:48:50.206Z,1.60
2024-02-07T08:51:17.957Z,4.60
2024-02-07T08:53:45.695Z,4.00
2024-02-07T08:56:13.309Z,3.38
2024-02-07T08:58:40.816Z,3.00
2024-02-07T09:01:11.886Z,2.17
2024-02-07T09:03:39.442Z,4.32
2024-02-07T09:06:07.236Z,3.13
2024-02-07T09:08:34.898Z,5.05
2024-02-07T09:11:02.512Z,4.17
2024-02-07T09:13:30.003Z,3.38
2024-02-07T09:15:59.694Z,1.83
2024-02-07T09:18:27.562Z,3.92
2024-02-07T09:20:55.191Z,2.55
2024-02-07T09:23:22.636Z,3.83
2024-02-07T09:25:50.048Z,1.67
2024-02-07T09:28:17.555Z,2.30
2024-02-07T09:30:45.081Z,4.28
2024-02-07T09:33:12.947Z,4.72
2024-02-07T09:35:42.826Z,4.72
2024-02-07T09:38:10.804Z,8.23
2024-02-07T09:40:38.365Z,3.50
2024-02-07T09:43:06.596Z,4.05
2024-02-07T09:45:37.852Z,4.88
2024-02-07T09:48:13.979Z,4.60
2024-02-07T09:50:41.959Z,4.18
2024-02-07T09:53:13.227Z,4.05
2024-02-07T09:55:40.798Z,4.90
2024-02-07T09:58:10.367Z,5.47
2024-02-07T10:00:37.997Z,3.08
2024-02-07T10:03:09.060Z,7.18
2024-02-07T10:05:37.226Z,5.78
2024-02-07T10:08:05.993Z,6.70
2024-02-07T10:10:33.613Z,4.57
2024-02-07T10:13:01.215Z,5.05
2024-02-07T10:15:29.205Z,2.90
2024-02-07T10:17:56.752Z,3.58
2024-02-07T10:20:25.420Z,4.47
2024-02-07T10:22:53.111Z,5.47
2024-02-07T10:25:20.732Z,3.78
2024-02-07T10:27:48.198Z,4.43
2024-02-07T10:30:15.702Z,4.47
2024-02-07T10:32:46.749Z,6.57
2024-02-07T10:35:19.394Z,3.22
2024-02-07T10:37:47.275Z,6.35
2024-02-07T10:40:15.017Z,3.28
2024-02-07T10:42:42.525Z,4.65
2024-02-07T10:45:16.385Z,5.78
2024-02-07T10:47:44.855Z,4.55
2024-02-07T10:52:42.425Z,6.30
2024-02-07T10:55:12.124Z,3.97
2024-02-07T10:57:40.524Z,5.30
2024-02-07T11:00:08.723Z,4.15
2024-02-07T11:02:36.400Z,3.50
2024-02-07T11:05:04.399Z,5.25
2024-02-07T11:07:32.268Z,5.53
2024-02-07T11:10:01.603Z,7.00
2024-02-07T11:12:30.342Z,6.72
2024-02-07T11:17:25.081Z,7.15
2024-02-07T11:19:52.766Z,5.40
2024-02-07T11:22:29.077Z,5.03
2024-02-07T11:24:58.676Z,10.73
2024-02-07T11:27:26.146Z,10.65
2024-02-07T11:29:56.027Z,9.98
2024-02-07T11:32:23.670Z,6.13
2024-02-07T11:34:54.606Z,6.43
2024-02-07T11:37:25.490Z,6.75
2024-02-07T11:39:53.096Z,6.70
2024-02-07T11:42:22.111Z,4.97
2024-02-07T11:44:50.376Z,5.78
2024-02-07T11:47:27.515Z,7.07
2024-02-07T11:50:06.925Z,5.25
2024-02-07T11:52:35.330Z,4.32
2024-02-07T11:55:03.904Z,6.05
2024-02-07T12:00:00.830Z,6.53
2024-02-07T12:02:29.145Z,6.93
2024-02-07T12:04:57.256Z,6.18
2024-02-07T12:07:25.170Z,6.55
2024-02-07T12:09:52.853Z,5.28
2024-02-07T12:12:20.400Z,7.27
2024-02-07T12:14:50.102Z,4.43
2024-02-07T12:17:17.716Z,5.78
2024-02-07T12:19:45.921Z,5.57
2024-02-07T12:22:20.455Z,7.00
2024-02-07T12:24:48.212Z,5.95
2024-02-07T12:27:17.346Z,9.07
2024-02-07T12:29:51.825Z,7.68
2024-02-07T12:32:19.849Z,7.93
2024-02-07T12:34:47.844Z,8.27
2024-02-07T12:37:16.053Z,6.22
2024-02-07T12:39:45.006Z,4.40
2024-02-07T12:42:15.051Z,7.88
2024-02-07T12:44:43.106Z,6.13
2024-02-07T12:47:17.439Z,7.00
2024-02-07T12:49:47.617Z,7.90
2024-02-07T12:52:17.978Z,7.60
2024-02-07T12:54:48.914Z,4.63
2024-02-07T12:57:26.065Z,6.97
2024-02-07T12:59:54.696Z,4.93
2024-02-07T13:04:49.875Z,7.27
2024-02-07T13:07:18.007Z,9.43
2024-02-07T13:09:46.531Z,7.30
2024-02-07T13:12:23.776Z,9.65
2024-02-07T13:14:57.416Z,6.13
2024-02-07T13:17:24.805Z,6.70
2024-02-07T13:19:52.241Z,5.97
2024-02-07T13:22:19.839Z,7.45
2024-02-07T13:24:47.281Z,7.70
2024-02-07T13:27:14.801Z,8.40
2024-02-07T13:29:43.023Z,6.78
2024-02-07T13:32:14.772Z,5.00
2024-02-07T13:34:43.312Z,4.85
2024-02-07T13:39:38.336Z,5.43
2024-02-07T13:42:05.977Z,5.60
2024-02-07T13:44:33.942Z,6.15
2024-02-07T13:47:04.364Z,5.03
2024-02-07T13:49:32.160Z,6.18
2024-02-07T13:52:00.798Z,3.93
2024-02-07T13:56:55.569Z,8.48
2024-02-07T13:59:23.021Z,7.40
2024-02-07T14:01:50.623Z,7.40
2024-02-07T14:04:18.338Z,6.57
2024-02-07T14:06:45.975Z,6.07
2024-02-07T14:09:13.879Z,7.07
2024-02-07T14:11:44.257Z,6.38
2024-02-07T14:14:11.817Z,4.90
2024-02-07T14:16:39.384Z,11.15
2024-02-07T14:19:06.943Z,4.90
2024-02-07T14:21:34.570Z,4.75
2024-02-07T14:24:02.073Z,7.70
2024-02-07T14:26:29.563Z,7.47
2024-02-07T14:28:57.048Z,6.88
2024-02-07T14:31:24.498Z,5.43
2024-02-07T14:33:51.993Z,7.65
2024-02-07T14:36:20.759Z,5.68
2024-02-07T14:38:48.200Z,5.43
2024-02-07T14:41:15.674Z,4.63
2024-02-07T14:43:43.370Z,3.47
2024-02-07T14:46:14.310Z,2.38
2024-02-07T14:48:45.259Z,2.55
2024-02-07T14:51:12.885Z,7.00
2024-02-07T14:53:40.333Z,4.07
2024-02-07T14:56:09.711Z,3.47
2024-02-07T14:58:37.440Z,4.13
2024-02-07T15:01:05.052Z,5.20
2024-02-07T15:03:32.875Z,3.77
2024-02-07T15:06:00.489Z,3.83
2024-02-07T15:08:28.087Z,3.77
2024-02-07T15:10:55.609Z,4.35
2024-02-07T15:13:23.155Z,3.33
2024-02-07T15:15:50.600Z,4.93
2024-02-07T15:18:17.995Z,6.13
2024-02-07T15:20:45.388Z,4.53
2024-02-07T15:23:13.805Z,3.45
2024-02-07T15:25:42.198Z,4.43
2024-02-07T15:30:38.197Z,5.13
2024-02-07T15:35:33.107Z,4.13
2024-02-07T15:38:00.767Z,5.15
2024-02-07T15:40:28.288Z,3.30
2024-02-07T15:42:56.597Z,4.63
2024-02-07T15:45:24.087Z,3.63
2024-02-07T15:47:51.586Z,5.55
2024-02-07T15:50:19.288Z,6.43
2024-02-07T15:52:48.730Z,6.53
2024-02-07T15:55:16.207Z,4.75
2024-02-07T15:57:43.747Z,5.70
2024-02-07T16:00:11.357Z,6.40
2024-02-07T16:02:44.356Z,5.60
2024-02-07T16:05:12.421Z,5.13
2024-02-07T16:07:40.066Z,5.68
2024-02-07T16:10:09.396Z,3.87
2024-02-07T16:12:36.942Z,6.82
2024-02-07T16:15:04.520Z,7.82
2024-02-07T16:17:32.090Z,8.05
2024-02-07T16:19:59.634Z,7.23
2024-02-07T16:22:27.477Z,6.10
2024-02-07T16:24:55.091Z,5.78
2024-02-07T16:27:22.561Z,5.95
2024-02-07T16:29:50.013Z,4.88
2024-02-07T16:32:17.431Z,5.38
2024-02-07T16:34:45.284Z,4.35
2024-02-07T16:37:12.778Z,5.47
2024-02-07T16:39:41.157Z,3.55
2024-02-07T16:42:08.657Z,3.38
2024-02-07T16:44:36.082Z,3.25
2024-02-07T16:47:03.699Z,4.25
2024-02-07T16:49:32.838Z,4.67
2024-02-07T16:52:00.727Z,4.10
2024-02-07T16:54:28.188Z,3.88
2024-02-07T16:56:55.612Z,4.32
2024-02-07T16:59:23.119Z,4.45
2024-02-07T17:01:51.436Z,4.68
2024-02-07T17:04:19.425Z,5.70
2024-02-07T17:06:47.420Z,5.47
2024-02-07T17:09:14.924Z,8.10
2024-02-07T17:11:42.786Z,7.53
2024-02-07T17:14:10.421Z,8.77
2024-02-07T17:16:40.185Z,7.87
2024-02-07T17:19:07.889Z,7.43
2024-02-07T17:21:35.479Z,7.20
2024-02-07T17:24:03.176Z,9.18
2024-02-07T17:26:30.646Z,12.07
2024-02-07T17:28:58.326Z,11.35
2024-02-07T17:31:26.111Z,15.38
2024-02-07T17:33:53.686Z,11.93
2024-02-07T17:36:21.175Z,11.33
2024-02-07T17:38:48.652Z,11.45
2024-02-07T17:41:16.127Z,10.43
2024-02-07T17:43:43.663Z,7.43
2024-02-07T17:46:11.531Z,9.48
2024-02-07T17:51:07.185Z,8.07
2024-02-07T17:53:34.736Z,10.48
2024-02-07T17:56:02.333Z,11.95
2024-02-07T17:58:29.979Z,7.40
2024-02-07T18:00:57.488Z,8.20
2024-02-07T18:03:25.139Z,8.50
2024-02-07T18:05:53.084Z,12.47
2024-02-07T18:08:20.907Z,7.10
2024-02-07T18:10:52.030Z,8.00
2024-02-07T18:13:20.049Z,8.82
2024-02-07T18:15:47.550Z,12.88
2024-02-07T18:18:15.634Z,11.20
2024-02-07T18:20:43.182Z,15.18
2024-02-07T18:23:10.715Z,11.25
2024-02-07T18:25:38.635Z,14.15
2024-02-07T18:28:06.180Z,10.40
2024-02-07T18:30:33.570Z,9.85
2024-02-07T18:33:01.122Z,11.15
2024-02-07T18:35:28.853Z,14.57
2024-02-07T18:37:56.496Z,18.20
2024-02-07T18:40:23.961Z,18.77
2024-02-07T18:42:51.508Z,16.02
2024-02-07T18:45:21.998Z,17.42
2024-02-07T18:47:49.463Z,18.27
2024-02-07T18:50:17.046Z,14.90
2024-02-07T18:52:44.600Z,13.03
2024-02-07T18:55:12.345Z,9.48
2024-02-07T18:57:40.097Z,9.00
2024-02-07T19:00:11.054Z,9.15
2024-02-07T19:02:38.749Z,7.47
2024-02-07T19:05:06.697Z,9.77
2024-02-07T19:07:34.396Z,7.95
2024-02-07T19:10:02.070Z,9.90
2024-02-07T19:12:29.860Z,9.07
2024-02-07T19:14:57.286Z,10.33
2024-02-07T19:17:24.755Z,7.38
2024-02-07T19:19:52.377Z,6.28
2024-02-07T19:22:20.959Z,7.80
2024-02-07T19:27:15.725Z,12.98
2024-02-07T19:29:43.095Z,12.88
2024-02-07T19:32:12.341Z,9.48
2024-02-07T19:34:40.075Z,12.35
2024-02-07T19:37:07.669Z,11.88
2024-02-07T19:39:35.117Z,8.93
2024-02-07T19:42:04.746Z,11.77
2024-02-07T19:44:32.192Z,12.15
2024-02-07T19:46:59.742Z,12.38
2024-02-07T19:49:27.411Z,9.50
2024-02-07T19:51:54.919Z,11.47
2024-02-07T19:54:22.440Z,11.10
2024-02-07T19:56:49.891Z,12.10
2024-02-07T19:59:17.734Z,14.63
2024-02-07T20:01:45.208Z,15.32
2024-02-07T20:04:12.913Z,14.03
2024-02-07T20:06:40.598Z,15.23
2024-02-07T20:09:08.130Z,14.52
2024-02-07T20:11:35.605Z,17.00
2024-02-07T20:14:05.414Z,13.77
2024-02-07T20:16:32.956Z,11.52
2024-02-07T20:19:02.039Z,13.45
2024-02-07T20:21:29.915Z,11.93
2024-02-07T20:23:57.381Z,17.60
2024-02-07T20:26:24.863Z,16.88
2024-02-07T20:28:52.476Z,14.90
2024-02-07T20:31:19.906Z,11.95
2024-02-07T20:33:47.483Z,12.90
2024-02-07T20:36:15.040Z,11.02
2024-02-07T20:38:44.871Z,14.65
2024-02-07T20:41:12.329Z,19.88
2024-02-07T20:43:40.081Z,18.13
2024-02-07T20:46:07.436Z,21.43
2024-02-07T20:48:35.859Z,21.63
2024-02-07T20:51:04.406Z,16.13
2024-02-07T20:53:31.877Z,13.80
2024-02-07T20:55:59.398Z,13.32
2024-02-07T20:58:26.897Z,12.75
2024-02-07T21:00:54.408Z,11.75
2024-02-07T21:03:24.345Z,12.32
2024-02-07T21:05:55.561Z,12.82
2024-02-07T21:08:23.192Z,13.52
2024-02-07T21:10:50.742Z,14.13
2024-02-07T21:13:18.245Z,11.93
2024-02-07T21:15:48.805Z,11.73
2024-02-07T21:18:16.399Z,13.45
2024-02-07T21:20:44.156Z,13.80
2024-02-07T21:23:11.621Z,13.80
2024-02-07T21:25:39.249Z,16.13
2024-02-07T21:28:06.987Z,13.60
2024-02-07T21:30:35.725Z,14.27
2024-02-07T21:33:03.406Z,15.40
2024-02-07T21:35:33.370Z,16.87
2024-02-07T21:38:00.993Z,15.65
2024-02-07T21:40:29.818Z,16.20
2024-02-07T21:42:57.377Z,13.88
2024-02-07T21:45:28.471Z,10.88
2024-02-07T21:47:55.952Z,11.48
2024-02-07T21:50:23.449Z,11.20
2024-02-07T21:52:51.297Z,12.32
2024-02-07T21:55:18.796Z,15.32
2024-02-07T21:57:48.072Z,12.85
2024-02-07T22:00:16.286Z,15.80
2024-02-07T22:02:44.021Z,17.02
2024-02-07T22:05:11.906Z,16.50
2024-02-07T22:07:39.500Z,19.05
2024-02-07T22:10:07.374Z,17.13
2024-02-07T22:12:34.957Z,15.50
2024-02-07T22:15:02.622Z,19.63
2024-02-07T22:17:30.169Z,21.27
2024-02-07T22:19:58.060Z,22.05
2024-02-07T22:24:53.628Z,20.33
2024-02-07T22:27:21.114Z,19.70
2024-02-07T22:29:48.632Z,19.02
2024-02-07T22:32:16.459Z,17.92
2024-02-07T22:34:44.061Z,21.42
2024-02-07T22:37:15.815Z,19.13
2024-02-07T22:39:43.393Z,17.10
2024-02-07T22:42:12.100Z,18.05
2024-02-07T22:44:42.218Z,17.02
2024-02-07T22:47:10.165Z,20.30
2024-02-07T22:49:38.200Z,19.98
2024-02-07T22:52:06.279Z,18.85
2024-02-07T22:54:33.828Z,17.95
2024-02-07T22:57:03.683Z,20.83
2024-02-07T22:59:31.417Z,24.25
2024-02-07T23:01:59.001Z,23.87
2024-02-07T23:04:26.641Z,17.17
2024-02-07T23:06:54.144Z,19.47
2024-02-07T23:09:25.430Z,15.15
2024-02-07T23:11:53.037Z,15.68
2024-02-07T23:14:20.467Z,11.13
2024-02-07T23:16:48.309Z,12.90
2024-02-07T23:19:15.942Z,13.57
2024-02-07T23:21:44.942Z,8.18
2024-02-07T23:24:13.091Z,10.88
2024-02-07T23:26:40.867Z,11.00
2024-02-07T23:29:08.514Z,12.70
2024-02-07T23:31:35.948Z,10.93
2024-02-07T23:34:03.614Z,9.93
2024-02-07T23:36:31.003Z,14.80
2024-02-07T23:38:58.442Z,14.85
2024-02-07T23:41:25.794Z,14.77
2024-02-07T23:43:53.229Z,12.55
2024-02-07T23:46:20.909Z,14.07
2024-02-07T23:48:48.725Z,13.67
2024-02-07T23:51:18.180Z,14.80
2024-02-07T23:53:47.841Z,15.00
2024-02-07T23:56:15.419Z,12.85
2024-02-07T23:58:42.897Z,13.45
